Time;durP1;ratioP1;P1;durP2;ratioP2;P2;SDS_P1;SDS_P2;PMS_P1;PMS_P2;Temp;Humidity;BMP_temperature;BMP_pressure;BME280_temperature;BME280_humidity;BME280_pressure;Samples;Min_cycle;Max_cycle;Signal;HPM_P1;HPM_P2
2020/12/17 00:00:50;;;;;;;28.13;12.07;;;;;;;5.78;78.23;100022.16;5087201;28;20095;-72
2020/12/17 00:03:16;;;;;;;29.58;15.32;;;;;;;5.79;78.39;100017.69;5091817;28;20028;-71
2020/12/17 00:05:41;;;;;;;31.00;14.32;;;;;;;5.82;79.28;100033.94;5091484;28;20040;-72
2020/12/17 00:08:07;;;;;;;22.75;9.70;;;;;;;5.82;78.63;100031.28;5085375;28;20066;-72
2020/12/17 00:10:32;;;;;;;11.07;5.55;;;;;;;5.75;77.36;100019.97;5088776;28;20043;-72
2020/12/17 00:12:58;;;;;;;10.65;5.65;;;;;;;5.72;77.49;100023.84;5074972;28;20036;-72
2020/12/17 00:15:23;;;;;;;9.02;5.00;;;;;;;5.66;76.90;100013.31;5091250;28;20057;-72
2020/12/17 00:17:51;;;;;;;9.77;5.88;;;;;;;5.61;76.75;100009.47;5089837;28;20040;-72
2020/12/17 00:20:19;;;;;;;11.65;5.53;;;;;;;5.69;76.70;100018.16;5074990;28;20527;-73
2020/12/17 00:22:45;;;;;;;21.27;6.43;;;;;;;5.65;77.44;100019.63;5071361;28;20055;-73
2020/12/17 00:25:12;;;;;;;12.07;6.53;;;;;;;5.70;76.96;100027.75;5071604;28;20068;-73
2020/12/17 00:27:39;;;;;;;11.83;6.70;;;;;;;5.70;77.23;100023.25;5078200;28;20040;-71
2020/12/17 00:30:06;;;;;;;15.32;8.18;;;;;;;5.72;77.46;100025.69;5070894;28;20025;-71
2020/12/17 00:32:31;;;;;;;17.30;9.50;;;;;;;5.72;77.90;100023.84;5078763;28;20040;-71
2020/12/17 00:34:57;;;;;;;23.23;11.80;;;;;;;5.75;77.86;100025.25;5071009;28;20029;-71
2020/12/17 00:37:27;;;;;;;29.92;14.05;;;;;;;5.75;78.15;100023.41;5070600;28;20025;-70
2020/12/17 00:39:53;;;;;;;30.52;15.40;;;;;;;5.74;78.63;100005.84;5070860;28;20511;-71
2020/12/17 00:42:18;;;;;;;34.83;15.60;;;;;;;5.83;78.62;100018.84;5086812;28;20032;-72
2020/12/17 00:44:44;;;;;;;35.05;15.32;;;;;;;5.83;78.95;100024.16;5091243;28;20034;-71
2020/12/17 00:47:09;;;;;;;28.73;15.07;;;;;;;5.83;78.97;100022.28;5072879;28;20036;-71
2020/12/17 00:49:34;;;;;;;30.17;15.63;;;;;;;5.83;78.88;100022.28;5070112;28;20089;-71
2020/12/17 00:52:01;;;;;;;27.38;13.35;;;;;;;5.82;78.41;100011.91;5088425;28;20107;-72
2020/12/17 00:54:28;;;;;;;23.50;10.40;;;;;;;5.86;78.33;100016.56;5077096;28;20039;-72
2020/12/17 00:56:53;;;;;;;28.88;13.25;;;;;;;5.85;78.35;100019.44;5087510;28;20032;-72
2020/12/17 00:59:19;;;;;;;29.00;14.00;;;;;;;5.89;78.16;100017.97;5078274;28;20025;-72
2020/12/17 01:01:45;;;;;;;30.98;15.40;;;;;;;5.84;78.39;100002.69;5072461;28;20036;-72
2020/12/17 01:04:10;;;;;;;30.70;14.90;;;;;;;5.90;78.57;100017.72;5071045;28;20503;-71
2020/12/17 01:06:36;;;;;;;24.35;11.07;;;;;;;5.84;78.36;100010.66;5070685;28;20457;-71
2020/12/17 01:09:02;;;;;;;18.58;10.32;;;;;;;5.87;77.96;100017.34;5075920;28;20028;-72
2020/12/17 01:11:29;;;;;;;15.65;8.32;;;;;;;5.84;78.00;100015.97;5078460;28;20024;-72
2020/12/17 01:13:55;;;;;;;9.75;6.00;;;;;;;5.85;77.06;100017.59;5083685;28;20120;-72
2020/12/17 01:16:21;;;;;;;10.15;5.45;;;;;;;5.86;77.05;100011.25;5073526;28;20127;-72
2020/12/17 01:18:47;;;;;;;11.07;5.68;;;;;;;5.86;77.18;100005.94;5071812;28;20493;-72
2020/12/17 01:21:12;;;;;;;9.15;5.90;;;;;;;5.86;77.30;100005.13;5071546;28;20075;-71
2020/12/17 01:23:38;;;;;;;12.18;6.18;;;;;;;5.88;76.55;100013.69;5086869;28;20417;-71
2020/12/17 01:26:10;;;;;;;12.82;6.32;;;;;;;5.84;76.75;100005.34;5083902;28;20032;-71
2020/12/17 01:28:38;;;;;;;13.07;7.15;;;;;;;5.74;76.69;99984.63;5080891;28;20029;-71
2020/12/17 01:31:08;;;;;;;13.77;6.72;;;;;;;5.88;76.90;100005.72;5071429;28;20157;-71
2020/12/17 01:33:33;;;;;;;10.60;5.53;;;;;;;5.89;76.28;100002.81;5088488;28;20032;-71
2020/12/17 01:36:10;;;;;;;9.40;5.63;;;;;;;5.89;76.60;99999.38;5090920;28;20039;-71
2020/12/17 01:38:37;;;;;;;11.40;5.53;;;;;;;5.89;76.23;99999.38;5071643;28;20059;-71
2020/12/17 01:41:04;;;;;;;11.23;6.85;;;;;;;5.82;75.68;99990.66;5089800;28;20056;-73
2020/12/17 01:43:37;;;;;;;12.35;7.32;;;;;;;5.86;75.88;99997.97;5069054;28;20032;-71
2020/12/17 01:46:04;;;;;;;8.95;5.53;;;;;;;5.83;76.24;99997.59;5070276;28;20055;-71
2020/12/17 01:48:29;;;;;;;11.20;6.10;;;;;;;5.81;76.19;99997.00;5070649;28;20094;-70
2020/12/17 01:50:55;;;;;;;9.95;5.22;;;;;;;5.77;75.62;99988.69;5070528;28;20481;-70
2020/12/17 01:53:20;;;;;;;8.48;4.13;;;;;;;5.85;75.75;100000.88;5087105;28;20027;-71
2020/12/17 01:55:46;;;;;;;8.07;4.72;;;;;;;5.75;75.91;99986.25;5079377;28;20103;-70
2020/12/17 01:58:22;;;;;;;11.05;5.03;;;;;;;5.77;75.93;99992.16;5079090;28;20038;-70
2020/12/17 02:00:52;;;;;;;7.07;4.55;;;;;;;5.79;75.87;99997.25;5090386;28;20036;-69
2020/12/17 02:03:17;;;;;;;9.15;5.07;;;;;;;5.68;75.82;99988.16;5090350;28;20458;-69
2020/12/17 02:05:43;;;;;;;10.00;6.43;;;;;;;5.69;75.71;99996.91;5084067;28;20082;-70
2020/12/17 02:08:10;;;;;;;9.48;5.20;;;;;;;5.65;75.70;99988.63;5078626;28;20039;-71
2020/12/17 02:10:36;;;;;;;9.20;5.00;;;;;;;5.57;76.21;99989.69;5090045;28;20517;-71
2020/12/17 02:13:01;;;;;;;10.18;6.13;;;;;;;5.52;76.90;99988.75;5078218;28;20120;-71
2020/12/17 02:15:27;;;;;;;11.85;5.40;;;;;;;5.53;76.69;100001.78;5073388;28;20060;-71
2020/12/17 02:17:52;;;;;;;8.95;5.88;;;;;;;5.52;76.62;99994.84;5079455;28;20028;-71
2020/12/17 02:20:17;;;;;;;15.32;6.95;;;;;;;5.49;77.48;99987.31;5092826;28;20052;-73
2020/12/17 02:22:43;;;;;;;12.90;7.60;;;;;;;5.51;77.59;99989.78;5093626;28;20032;-70
2020/12/17 02:25:12;;;;;;;14.10;6.93;;;;;;;5.49;77.14;99986.53;5088132;28;20101;-72
2020/12/17 02:27:38;;;;;;;15.13;8.40;;;;;;;5.56;77.69;99996.03;5077300;28;20032;-71
2020/12/17 02:30:07;;;;;;;13.38;7.30;;;;;;;5.57;77.55;100000.31;5093313;28;20089;-71
2020/12/17 02:32:32;;;;;;;12.15;8.38;;;;;;;5.51;77.87;99981.81;5078469;28;20040;-71
2020/12/17 02:34:58;;;;;;;14.80;7.95;;;;;;;5.58;77.58;99990.53;5072351;28;20489;-70
2020/12/17 02:37:23;;;;;;;15.00;7.65;;;;;;;5.59;77.37;99984.16;5073353;28;20033;-70
2020/12/17 02:39:49;;;;;;;9.15;6.03;;;;;;;5.63;77.41;99988.00;5092667;28;20032;-71
2020/12/17 02:42:14;;;;;;;10.30;6.07;;;;;;;5.63;77.62;99992.50;5089392;28;20067;-71
2020/12/17 02:44:40;;;;;;;12.40;7.20;;;;;;;5.69;77.36;99997.75;5073049;28;20037;-71
2020/12/17 02:47:05;;;;;;;12.50;6.72;;;;;;;5.64;77.41;99981.69;5073264;28;20036;-71
2020/12/17 02:49:31;;;;;;;14.95;7.85;;;;;;;5.70;77.33;99995.88;5091313;28;20481;-72
2020/12/17 02:51:56;;;;;;;11.05;7.00;;;;;;;5.72;77.27;99999.16;5081007;28;20564;-72
2020/12/17 02:54:21;;;;;;;16.10;7.90;;;;;;;5.67;76.72;99991.84;5083066;28;20111;-72
2020/12/17 02:56:47;;;;;;;14.57;7.15;;;;;;;5.75;77.05;99996.88;5080922;28;20028;-72
2020/12/17 02:59:13;;;;;;;15.70;6.88;;;;;;;5.71;76.63;100000.16;5088951;28;20516;-72
2020/12/17 03:01:38;;;;;;;16.60;7.28;;;;;;;5.70;76.95;99994.06;5090509;28;20484;-72
2020/12/17 03:04:03;;;;;;;13.70;7.72;;;;;;;5.77;76.63;100005.44;5091242;28;20100;-71
2020/12/17 03:06:29;;;;;;;15.70;6.50;;;;;;;5.74;76.84;100003.19;5091001;28;20024;-71
2020/12/17 03:08:54;;;;;;;12.30;7.07;;;;;;;5.77;77.17;99999.28;5093267;28;20082;-71
2020/12/17 03:11:20;;;;;;;15.77;7.95;;;;;;;5.75;77.08;99996.06;5092889;28;20038;-71
2020/12/17 03:13:45;;;;;;;16.88;8.02;;;;;;;5.77;76.65;100000.13;5092244;28;20369;-70
2020/12/17 03:16:11;;;;;;;16.73;7.50;;;;;;;5.80;76.57;99998.88;5090680;28;20028;-71
2020/12/17 03:18:36;;;;;;;15.40;7.78;;;;;;;5.80;76.73;100003.34;5072264;28;20021;-71
2020/12/17 03:21:01;;;;;;;19.13;8.27;;;;;;;5.72;76.68;99989.31;5082284;28;20088;-71
2020/12/17 03:23:27;;;;;;;14.63;7.90;;;;;;;5.80;77.05;100000.69;5087186;28;20041;-72
2020/12/17 03:25:52;;;;;;;13.68;7.97;;;;;;;5.70;76.96;99980.78;5072279;28;20036;-72
2020/12/17 03:28:17;;;;;;;15.30;8.15;;;;;;;5.75;76.64;99990.75;5090064;28;20040;-71
2020/12/17 03:30:43;;;;;;;12.68;8.35;;;;;;;5.72;76.95;99991.19;5091925;28;20043;-71
2020/12/17 03:33:08;;;;;;;15.70;8.50;;;;;;;5.77;77.12;100004.59;5080657;28;20028;-70
2020/12/17 03:35:34;;;;;;;14.73;9.05;;;;;;;5.74;76.71;99995.25;5072128;28;20124;-70
2020/12/17 03:37:59;;;;;;;11.45;8.20;;;;;;;5.75;76.85;100002.16;5088604;28;20032;-71
2020/12/17 03:40:26;;;;;;;11.18;6.65;;;;;;;5.77;76.96;99999.28;5091315;28;20036;-70
2020/12/17 03:42:52;;;;;;;11.43;6.80;;;;;;;5.72;76.64;99988.53;5092299;28;20028;-70
2020/12/17 03:45:18;;;;;;;11.60;7.55;;;;;;;5.73;76.63;99996.25;5091893;28;20089;-70
2020/12/17 03:47:43;;;;;;;13.23;7.30;;;;;;;5.72;76.61;99991.19;5079322;28;20447;-72
2020/12/17 03:50:08;;;;;;;15.27;7.18;;;;;;;5.74;76.47;99999.75;5090177;28;20446;-71
2020/12/17 03:52:34;;;;;;;15.75;7.00;;;;;;;5.71;76.62;99993.03;5089620;28;20036;-71
2020/12/17 03:54:59;;;;;;;15.23;8.38;;;;;;;5.70;76.62;99988.75;5075372;28;20401;-73
2020/12/17 03:57:24;;;;;;;13.25;7.45;;;;;;;5.75;76.87;99996.06;5083598;28;20036;-71
2020/12/17 03:59:50;;;;;;;12.18;6.60;;;;;;;5.73;76.78;99998.13;5080989;28;20024;-70
2020/12/17 04:02:15;;;;;;;12.95;7.32;;;;;;;5.74;76.56;99997.09;5070465;28;20024;-71
2020/12/17 04:04:41;;;;;;;12.73;6.28;;;;;;;5.72;76.48;99993.84;5072198;28;20033;-70
2020/12/17 04:07:06;;;;;;;13.10;7.38;;;;;;;5.75;76.67;100001.38;5074992;28;20032;-73
2020/12/17 04:09:31;;;;;;;11.40;7.18;;;;;;;5.75;76.57;100001.38;5071515;28;20032;-73
2020/12/17 04:11:57;;;;;;;11.48;7.30;;;;;;;5.76;76.67;99997.66;5070390;28;20036;-71
2020/12/17 04:14:22;;;;;;;11.35;5.75;;;;;;;5.68;76.29;99987.34;5079597;28;20032;-71
2020/12/17 04:16:48;;;;;;;8.82;5.50;;;;;;;5.70;75.96;100001.19;5090684;28;20022;-70
2020/12/17 04:19:13;;;;;;;8.10;4.88;;;;;;;5.68;75.85;100001.44;5090195;28;20469;-70
2020/12/17 04:21:39;;;;;;;11.65;6.13;;;;;;;5.68;75.85;99997.97;5074221;28;20029;-70
2020/12/17 04:24:04;;;;;;;10.68;4.95;;;;;;;5.63;75.85;99998.63;5072773;28;20147;-71
2020/12/17 04:26:29;;;;;;;9.27;5.97;;;;;;;5.56;76.01;99997.88;5079810;28;20162;-72
2020/12/17 04:28:55;;;;;;;9.77;6.70;;;;;;;5.53;76.45;99999.13;5079665;28;20492;-72
2020/12/17 04:31:20;;;;;;;7.00;5.20;;;;;;;5.47;76.43;99997.34;5089231;28;20081;-71
2020/12/17 04:33:46;;;;;;;10.40;5.85;;;;;;;5.47;76.61;100000.00;5090439;28;20105;-71
2020/12/17 04:36:12;;;;;;;11.48;6.13;;;;;;;5.51;76.54;100003.03;5089623;28;20044;-71
2020/12/17 04:38:37;;;;;;;8.32;5.50;;;;;;;5.49;76.90;100000.59;5072594;28;20039;-72
2020/12/17 04:41:05;;;;;;;14.00;6.55;;;;;;;5.51;76.86;100001.19;5080561;28;20060;-73
2020/12/17 04:43:31;;;;;;;10.75;6.05;;;;;;;5.56;76.68;100011.16;5069572;28;20119;-70
2020/12/17 04:45:57;;;;;;;11.55;6.57;;;;;;;5.59;76.73;100013.34;5072197;28;20485;-72
2020/12/17 04:48:25;;;;;;;10.55;6.55;;;;;;;5.60;76.48;100013.16;5087513;28;20032;-72
2020/12/17 04:50:51;;;;;;;13.63;7.55;;;;;;;5.64;75.99;100024.13;5088592;28;20065;-72
2020/12/17 04:53:17;;;;;;;12.88;7.45;;;;;;;5.59;76.20;100010.69;5089722;28;20036;-72
2020/12/17 04:55:43;;;;;;;17.25;8.75;;;;;;;5.63;76.29;100013.72;5089058;28;20119;-71
2020/12/17 04:58:10;;;;;;;14.20;8.50;;;;;;;5.63;76.22;100008.41;5084454;28;20111;-72
2020/12/17 05:00:40;;;;;;;16.00;8.20;;;;;;;5.65;76.44;100012.50;5081021;28;20024;-71
2020/12/17 05:03:12;;;;;;;12.57;6.97;;;;;;;5.73;76.21;100024.66;5091142;28;20431;-70
2020/12/17 05:05:39;;;;;;;14.77;7.68;;;;;;;5.72;76.83;100026.50;5088634;28;20552;-70
2020/12/17 05:08:04;;;;;;;13.50;7.47;;;;;;;5.77;76.10;100026.66;5084801;28;20097;-70
2020/12/17 05:10:29;;;;;;;10.45;6.63;;;;;;;5.74;75.78;100023.63;5081684;28;20426;-70
2020/12/17 05:12:55;;;;;;;11.57;6.80;;;;;;;5.80;76.18;100035.19;5090537;28;20070;-70
2020/12/17 05:15:25;;;;;;;13.13;7.45;;;;;;;5.76;76.11;100029.50;5084223;28;20511;-69
2020/12/17 05:17:52;;;;;;;10.10;6.38;;;;;;;5.81;75.77;100037.66;5071255;28;20070;-70
2020/12/17 05:20:17;;;;;;;13.23;6.75;;;;;;;5.79;75.80;100033.59;5074436;28;20403;-70
2020/12/17 05:22:44;;;;;;;11.45;7.63;;;;;;;5.83;76.26;100042.75;5073390;28;20025;-70
2020/12/17 05:25:12;;;;;;;12.35;7.53;;;;;;;5.74;76.08;100027.09;5082440;28;20566;-70
2020/12/17 05:27:39;;;;;;;15.73;9.02;;;;;;;5.81;75.31;100036.81;5088936;28;20044;-70
2020/12/17 05:30:04;;;;;;;17.33;9.55;;;;;;;5.80;75.52;100032.53;5088422;28;20111;-70
2020/12/17 05:32:30;;;;;;;13.80;8.45;;;;;;;5.80;75.49;100032.53;5074444;28;20150;-70
2020/12/17 05:34:55;;;;;;;13.02;8.23;;;;;;;5.80;75.97;100035.19;5070358;28;20024;-71
2020/12/17 05:37:22;;;;;;;13.07;8.80;;;;;;;5.81;75.71;100034.16;5071586;28;20040;-70
2020/12/17 05:39:49;;;;;;;13.88;8.38;;;;;;;5.79;75.35;100034.41;5074142;28;21725;-71
2020/12/17 05:42:14;;;;;;;14.23;9.05;;;;;;;5.76;75.95;100018.91;5078088;28;20035;-71
2020/12/17 05:44:40;;;;;;;19.13;9.10;;;;;;;5.78;75.97;100030.13;5088766;28;20074;-69
2020/12/17 05:47:05;;;;;;;16.60;8.73;;;;;;;5.75;75.43;100020.75;5086453;28;20085;-69
2020/12/17 05:49:33;;;;;;;12.77;8.65;;;;;;;5.77;75.55;100016.03;5077318;28;20029;-68
2020/12/17 05:52:10;;;;;;;14.50;9.13;;;;;;;5.83;76.10;100029.47;5073995;28;20508;-69
2020/12/17 05:54:36;;;;;;;13.18;7.90;;;;;;;5.74;75.70;100019.13;5074006;28;20028;-69
2020/12/17 05:57:08;;;;;;;14.38;8.30;;;;;;;5.74;75.41;100021.78;5081535;28;20043;-68
2020/12/17 05:59:34;;;;;;;15.63;8.73;;;;;;;5.79;75.33;100031.75;5077663;28;20480;-69
2020/12/17 06:02:29;;;;;;;16.17;9.10;;;;;;;5.81;75.75;100039.47;5074168;28;20061;-69
2020/12/17 06:05:01;;;;;;;15.30;8.77;;;;;;;5.79;75.89;100034.41;5072603;28;20419;-69
2020/12/17 06:07:51;;;;;;;13.75;7.95;;;;;;;5.80;75.89;100038.69;5092682;28;20031;-70
2020/12/17 06:10:25;;;;;;;11.85;7.97;;;;;;;5.56;75.69;100011.94;5085386;28;20059;-70
2020/12/17 06:12:52;;;;;;;11.70;8.35;;;;;;;5.78;75.92;100046.03;5084206;28;20450;-70
2020/12/17 06:15:20;;;;;;;14.63;8.80;;;;;;;5.74;75.67;100043.00;5079168;28;20028;-69
2020/12/17 06:17:52;;;;;;;13.90;7.65;;;;;;;5.72;75.32;100039.75;5079606;28;20035;-69
2020/12/17 06:20:18;;;;;;;17.00;8.25;;;;;;;5.71;75.63;100050.59;5093991;28;20051;-70
2020/12/17 06:22:52;;;;;;;17.20;9.30;;;;;;;5.60;76.08;100033.56;5093690;28;20024;-69
2020/12/17 06:25:19;;;;;;;14.63;8.05;;;;;;;5.65;75.54;100040.88;5093422;28;20036;-71
2020/12/17 06:27:49;;;;;;;15.52;8.70;;;;;;;5.66;75.78;100039.84;5082834;28;20041;-69
2020/12/17 06:30:17;;;;;;;17.27;9.00;;;;;;;5.68;75.67;100043.88;5072361;28;20082;-70
2020/12/17 06:32:43;;;;;;;15.55;8.55;;;;;;;5.64;76.08;100039.22;5073368;28;20024;-70
2020/12/17 06:35:34;;;;;;;15.23;9.38;;;;;;;5.60;76.21;100036.19;5073573;28;20428;-71
2020/12/17 06:38:07;;;;;;;18.92;10.85;;;;;;;5.65;76.86;100054.13;5072087;28;20021;-70
2020/12/17 06:40:32;;;;;;;16.73;9.90;;;;;;;5.67;76.70;100052.88;5075845;28;20727;-68
2020/12/17 06:42:58;;;;;;;16.30;8.95;;;;;;;5.70;76.24;100055.09;5085109;28;20050;-69
2020/12/17 06:45:27;;;;;;;18.23;10.50;;;;;;;5.66;76.05;100051.25;5088644;28;20473;-70
2020/12/17 06:47:53;;;;;;;23.40;11.85;;;;;;;5.66;76.41;100045.16;5093105;28;20032;-70
2020/12/17 06:50:24;;;;;;;23.55;10.88;;;;;;;5.68;75.83;100051.06;5093245;28;20027;-70
2020/12/17 06:53:18;;;;;;;20.88;12.05;;;;;;;5.78;76.63;100067.28;5084005;28;20039;-70
2020/12/17 06:55:49;;;;;;;23.75;11.95;;;;;;;5.82;76.60;100070.31;5072495;28;20062;-70
2020/12/17 06:58:24;;;;;;;22.58;12.70;;;;;;;5.77;75.82;100055.03;5092184;28;20408;-70
2020/12/17 07:00:52;;;;;;;21.95;12.80;;;;;;;5.81;76.58;100080.13;5091163;28;20028;-70
2020/12/17 07:03:40;;;;;;;20.40;11.40;;;;;;;5.82;76.47;100084.38;5091831;28;20073;-70
2020/12/17 07:06:15;;;;;;;20.95;11.43;;;;;;;5.74;76.42;100074.88;5090168;28;20031;-72
2020/12/17 07:08:41;;;;;;;22.73;11.73;;;;;;;5.74;76.45;100079.38;5091211;28;20090;-69
2020/12/17 07:11:07;;;;;;;19.95;11.15;;;;;;;5.69;76.14;100072.06;5093048;28;20488;-69
2020/12/17 07:13:42;;;;;;;22.92;12.50;;;;;;;5.60;76.24;100066.22;5091682;28;20031;-69
2020/12/17 07:16:18;;;;;;;18.90;10.98;;;;;;;5.63;76.37;100074.75;5091939;28;20032;-70
2020/12/17 07:18:44;;;;;;;34.63;18.20;;;;;;;5.71;76.37;100093.06;5092471;28;20495;-70
2020/12/17 07:21:09;;;;;;;31.92;15.63;;;;;;;5.68;76.48;100089.00;5080649;28;20033;-70
2020/12/17 07:23:39;;;;;;;19.50;10.75;;;;;;;5.70;76.12;100084.31;5076091;28;20048;-70
2020/12/17 07:26:14;;;;;;;20.35;9.02;;;;;;;5.71;76.41;100085.94;5083605;28;20040;-69
2020/12/17 07:28:40;;;;;;;21.85;9.48;;;;;;;5.68;76.38;100074.94;5092253;28;20024;-70
2020/12/17 07:31:07;;;;;;;18.38;10.30;;;;;;;5.73;76.11;100081.19;5080418;28;20041;-70
2020/12/17 07:33:38;;;;;;;15.68;8.82;;;;;;;5.79;76.34;100095.44;5074612;28;20123;-70
2020/12/17 07:36:10;;;;;;;100.15;45.72;;;;;;;5.75;76.38;100081.81;5088512;28;20028;-70
2020/12/17 07:38:36;;;;;;;31.23;17.90;;;;;;;5.83;76.36;100085.22;5092435;28;20027;-70
2020/12/17 07:41:02;;;;;;;21.40;12.07;;;;;;;5.84;76.13;100087.63;5091677;28;20110;-70
2020/12/17 07:43:48;;;;;;;19.52;9.38;;;;;;;5.87;76.08;100086.38;5092732;28;20140;-70
2020/12/17 07:46:13;;;;;;;16.15;9.10;;;;;;;5.87;76.35;100087.22;5091163;28;20036;-70
2020/12/17 07:48:39;;;;;;;14.30;8.00;;;;;;;5.88;76.35;100098.63;5086668;28;20039;-70
2020/12/17 07:51:26;;;;;;;14.77;8.65;;;;;;;5.85;75.87;100093.78;5072080;28;20021;-70
2020/12/17 07:53:52;;;;;;;15.27;7.70;;;;;;;5.78;75.52;100099.13;5084836;28;20449;-70
2020/12/17 07:56:19;;;;;;;20.77;10.35;;;;;;;5.79;76.11;100102.63;5076056;28;20454;-70
2020/12/17 07:58:45;;;;;;;17.02;8.15;;;;;;;5.71;76.47;100095.72;5091477;28;20111;-70
2020/12/17 08:01:12;;;;;;;25.38;13.77;;;;;;;5.57;76.26;100071.94;5092153;28;20032;-70
2020/12/17 08:03:41;;;;;;;20.20;10.18;;;;;;;5.79;76.58;100108.72;5091490;28;20066;-71
2020/12/17 08:06:09;;;;;;;16.15;10.02;;;;;;;5.81;76.78;100096.06;5091594;28;20085;-70
2020/12/17 08:08:34;;;;;;;20.10;10.80;;;;;;;5.83;76.89;100093.19;5091765;28;20036;-70
2020/12/17 08:11:07;;;;;;;17.73;10.48;;;;;;;5.84;76.82;100095.59;5090994;28;20554;-70
2020/12/17 08:13:33;;;;;;;20.13;10.73;;;;;;;5.88;76.62;100098.63;5092171;28;20035;-70
2020/12/17 08:15:59;;;;;;;22.90;11.32;;;;;;;5.84;76.18;100100.91;5091454;28;20550;-70
2020/12/17 08:18:29;;;;;;;26.75;11.55;;;;;;;5.86;76.71;100101.50;5091480;28;20067;-72
2020/12/17 08:21:06;;;;;;;24.15;12.45;;;;;;;5.85;77.00;100096.44;5091565;28;20089;-70
2020/12/17 08:23:34;;;;;;;17.80;10.70;;;;;;;5.89;76.30;100095.75;5090711;28;20058;-72
2020/12/17 08:26:01;;;;;;;21.23;11.20;;;;;;;5.96;76.84;100095.69;5071334;28;20029;-73
2020/12/17 08:28:32;;;;;;;25.05;13.27;;;;;;;6.03;76.51;100095.66;5071723;28;20040;-71
2020/12/17 08:31:08;;;;;;;22.85;11.63;;;;;;;6.03;75.88;100087.69;5069793;28;20017;-74
2020/12/17 08:33:35;;;;;;;27.85;14.35;;;;;;;6.13;76.46;100090.66;5071444;28;20020;-74
2020/12/17 08:36:03;;;;;;;21.92;13.02;;;;;;;6.14;75.88;100086.16;5071037;28;20034;-74
2020/12/17 08:38:29;;;;;;;20.97;11.97;;;;;;;6.20;76.46;100094.06;5071594;28;20063;-75
2020/12/17 08:40:56;;;;;;;28.13;13.25;;;;;;;6.28;76.29;100086.84;5072919;28;20024;-73
2020/12/17 08:43:27;;;;;;;18.97;9.97;;;;;;;6.28;76.16;100070.91;5089595;28;20063;-74
2020/12/17 08:45:55;;;;;;;18.83;9.02;;;;;;;6.34;75.29;100077.97;5089846;28;20036;-74
2020/12/17 08:48:23;;;;;;;20.40;10.38;;;;;;;6.44;75.16;100080.09;5090098;28;20134;-74
2020/12/17 08:50:50;;;;;;;18.45;10.07;;;;;;;6.49;75.09;100080.25;5084229;28;20039;-74
2020/12/17 08:53:23;;;;;;;14.75;7.97;;;;;;;6.46;73.78;100070.03;5069822;28;20028;-74
2020/12/17 08:56:01;;;;;;;20.58;10.70;;;;;;;6.52;74.50;100077.16;5086206;28;20051;-74
2020/12/17 08:58:27;;;;;;;;;;;;;;;6.59;74.86;100069.09;5089530;28;20024;-74
2020/12/17 09:00:53;;;;;;;14.02;7.78;;;;;;;6.55;73.91;100061.56;5089251;28;19920;-74
2020/12/17 09:03:19;;;;;;;8.38;5.22;;;;;;;6.60;73.31;100062.72;5106703;28;20039;-75
2020/12/17 09:06:00;;;;;;;8.40;4.85;;;;;;;6.65;73.02;100060.22;5077799;28;20029;-74
2020/12/17 09:08:25;;;;;;;10.75;5.45;;;;;;;6.64;72.19;100053.25;5069564;28;20051;-74
2020/12/17 09:10:50;;;;;;;10.68;5.10;;;;;;;6.66;72.71;100059.19;5072871;28;20025;-74
2020/12/17 09:13:17;;;;;;;8.80;5.60;;;;;;;6.65;72.12;100052.22;5070779;28;20093;-74
2020/12/17 09:15:43;;;;;;;11.43;6.38;;;;;;;6.62;72.31;100056.16;5070083;28;20039;-75
2020/12/17 09:18:09;;;;;;;15.20;6.28;;;;;;;6.58;72.35;100041.72;5082459;28;20032;-72
2020/12/17 09:20:35;;;;;;;12.55;7.15;;;;;;;6.65;72.19;100057.56;5092386;28;20382;-73
2020/12/17 09:23:07;;;;;;;14.73;7.95;;;;;;;6.58;72.54;100044.38;5096132;28;20031;-76
2020/12/17 09:25:33;;;;;;;15.30;7.43;;;;;;;6.64;72.43;100056.75;5084989;28;20068;-74
2020/12/17 09:27:58;;;;;;;15.65;7.93;;;;;;;6.64;72.43;100050.59;5077383;28;20090;-73
2020/12/17 09:30:30;;;;;;;12.75;7.40;;;;;;;6.65;72.33;100057.56;5089228;28;20035;-73
2020/12/17 09:33:00;;;;;;;15.18;7.82;;;;;;;6.59;72.10;100037.97;5075767;28;20028;-73
2020/12/17 09:35:31;;;;;;;15.15;7.13;;;;;;;6.60;72.37;100031.63;5092856;28;20036;-73
2020/12/17 09:37:59;;;;;;;14.55;7.57;;;;;;;6.60;72.24;100028.19;5080411;28;20040;-73
2020/12/17 09:40:25;;;;;;;12.60;6.97;;;;;;;6.64;72.10;100029.34;5092681;28;20028;-73
2020/12/17 09:43:12;;;;;;;12.45;7.03;;;;;;;6.64;72.24;100038.16;5093446;28;20461;-74
2020/12/17 09:45:43;;;;;;;12.73;6.65;;;;;;;6.66;71.51;100040.56;5075511;28;20095;-76
2020/12/17 09:48:19;;;;;;;14.55;7.18;;;;;;;6.69;71.90;100038.28;5081133;28;20024;-73
2020/12/17 09:50:52;;;;;;;11.55;5.68;;;;;;;6.51;71.64;100009.09;5075525;28;20028;-73
2020/12/17 09:53:20;;;;;;;8.63;4.47;;;;;;;6.69;71.71;100037.47;5092716;28;20538;-74
2020/12/17 09:55:45;;;;;;;12.80;5.82;;;;;;;6.66;71.25;100035.25;5093324;28;20031;-74
2020/12/17 09:58:11;;;;;;;12.68;7.38;;;;;;;6.67;71.47;100036.88;5112440;28;20023;-74
2020/12/17 10:00:36;;;;;;;10.18;6.13;;;;;;;6.66;71.51;100025.41;5094204;28;20027;-74
2020/12/17 10:03:02;;;;;;;9.10;5.93;;;;;;;6.67;71.63;100026.25;5084112;28;20038;-74
2020/12/17 10:05:27;;;;;;;15.70;7.68;;;;;;;6.67;71.35;100028.91;5095757;28;20032;-74
2020/12/17 10:07:53;;;;;;;11.32;6.65;;;;;;;6.68;71.47;100030.53;5094403;28;20377;-74
2020/12/17 10:10:20;;;;;;;13.52;6.60;;;;;;;6.71;71.37;100032.72;5086864;28;20047;-75
2020/12/17 10:12:45;;;;;;;11.73;5.65;;;;;;;6.68;71.03;100027.88;5092328;28;20111;-75
2020/12/17 10:15:11;;;;;;;6.03;4.43;;;;;;;6.70;71.34;100028.44;5103942;28;20113;-75
2020/12/17 10:17:36;;;;;;;5.63;4.40;;;;;;;6.74;71.81;100024.31;5085740;28;20028;-73
2020/12/17 10:20:09;;;;;;;9.25;5.82;;;;;;;6.74;71.63;100016.34;5091375;28;20043;-73
2020/12/17 10:22:36;;;;;;;8.85;5.63;;;;;;;6.80;71.34;100018.09;5095677;28;20032;-74
2020/12/17 10:25:02;;;;;;;6.35;4.18;;;;;;;6.86;71.79;100019.00;5091117;28;20489;-73
2020/12/17 10:27:28;;;;;;;6.40;3.83;;;;;;;6.68;71.26;99982.69;5085434;28;20481;-73
2020/12/17 10:29:54;;;;;;;7.72;4.40;;;;;;;6.91;71.39;100021.81;5076169;28;20043;-73
2020/12/17 10:32:19;;;;;;;10.43;4.75;;;;;;;6.93;71.16;100019.72;5096817;28;20035;-73
2020/12/17 10:34:45;;;;;;;7.90;5.22;;;;;;;6.94;70.47;100023.22;5082945;28;20028;-73
2020/12/17 10:37:10;;;;;;;8.57;4.70;;;;;;;6.91;70.92;100019.16;5088756;28;20047;-73
2020/12/17 10:39:36;;;;;;;7.55;4.90;;;;;;;6.97;71.45;100022.75;5103842;28;20020;-73
2020/12/17 10:42:04;;;;;;;10.05;5.57;;;;;;;6.94;70.44;100009.91;5081502;28;20028;-73
2020/12/17 10:44:31;;;;;;;;;;;;;;;6.96;70.92;100013.16;5092752;28;20421;-74
2020/12/17 10:46:57;;;;;;;12.52;8.52;;;;;;;6.90;70.44;100012.22;5089963;28;20388;-72
2020/12/17 10:49:22;;;;;;;11.38;6.15;;;;;;;6.89;70.83;100014.03;5080605;28;20040;-73
2020/12/17 10:51:51;;;;;;;10.05;6.57;;;;;;;6.91;70.75;100005.03;5090935;28;20119;-73
2020/12/17 10:54:16;;;;;;;8.77;5.72;;;;;;;6.84;70.18;100005.94;5092280;28;20097;-73
2020/12/17 10:56:48;;;;;;;8.77;6.15;;;;;;;6.85;70.32;100002.25;5093146;28;20039;-72
2020/12/17 10:59:13;;;;;;;12.60;7.00;;;;;;;6.86;70.71;100006.53;5078399;28;20112;-75
2020/12/17 11:01:39;;;;;;;24.75;12.27;;;;;;;6.81;70.93;99992.28;5072724;28;20025;-73
2020/12/17 11:04:04;;;;;;;16.30;10.05;;;;;;;6.86;71.01;99998.56;5084816;28;20031;-73
2020/12/17 11:06:30;;;;;;;11.02;5.95;;;;;;;6.83;70.87;99992.88;5075804;28;20043;-73
2020/12/17 11:08:56;;;;;;;8.00;5.43;;;;;;;6.84;70.12;100003.28;5090302;28;20448;-73
2020/12/17 11:11:22;;;;;;;8.52;5.53;;;;;;;6.83;70.55;100000.88;5087293;28;20047;-74
2020/12/17 11:13:47;;;;;;;7.72;4.90;;;;;;;6.79;70.84;99997.84;5071263;28;20116;-75
2020/12/17 11:16:13;;;;;;;12.38;5.22;;;;;;;6.79;70.69;99991.72;5071369;28;20082;-74
2020/12/17 11:18:40;;;;;;;6.03;4.38;;;;;;;6.83;70.91;99998.22;5071340;28;20082;-76
2020/12/17 11:21:06;;;;;;;6.45;4.30;;;;;;;6.83;70.95;99996.34;5071108;28;20024;-74
2020/12/17 11:23:33;;;;;;;6.85;5.18;;;;;;;6.83;70.32;99990.22;5072676;28;20052;-74
2020/12/17 11:26:01;;;;;;;6.70;4.30;;;;;;;6.84;71.10;99987.34;5079614;28;20087;-74
2020/12/17 11:28:26;;;;;;;7.03;3.97;;;;;;;6.85;70.69;99993.47;5084322;28;20028;-74